Time;durP1;ratioP1;P1;durP2;ratioP2;P2;SDS_P1;SDS_P2;PMS_P1;PMS_P2;Temp;Humidity;BMP_temperature;BMP_pressure;BME280_temperature;BME280_humidity;BME280_pressure;Samples;Min_cycle;Max_cycle;Signal;HPM_P1;HPM_P2
2024/01/27 00:02:12;;;;;;;19.73;4.93;;;;;;;1.97;100.00;103309.84;5008206;28;20052;-67
2024/01/27 00:04:40;;;;;;;18.92;4.60;;;;;;;1.98;100.00;103316.84;5007780;28;20120;-67
2024/01/27 00:07:07;;;;;;;13.55;4.47;;;;;;;1.98;100.00;103313.34;5008055;28;20124;-67
2024/01/27 00:09:34;;;;;;;17.15;4.40;;;;;;;1.93;100.00;103313.16;5011512;28;20050;-67
2024/01/27 00:12:01;;;;;;;17.92;4.53;;;;;;;1.91;100.00;103326.88;5006560;28;20129;-68
2024/01/27 00:14:28;;;;;;;14.68;4.75;;;;;;;1.89;100.00;103324.22;4991761;28;20099;-68
2024/01/27 00:16:55;;;;;;;14.25;4.40;;;;;;;1.86;100.00;103322.38;5008368;28;20682;-67
2024/01/27 00:19:22;;;;;;;18.02;5.40;;;;;;;1.84;100.00;103326.63;5008082;28;20046;-67
2024/01/27 00:21:50;;;;;;;24.58;5.57;;;;;;;1.82;100.00;103338.66;5007452;28;20038;-68
2024/01/27 00:24:17;;;;;;;16.65;4.70;;;;;;;1.80;100.00;103340.28;5007157;28;20034;-67
2024/01/27 00:26:44;;;;;;;17.20;5.05;;;;;;;1.76;100.00;103337.47;5008622;28;20584;-67
2024/01/27 00:29:12;;;;;;;18.63;5.18;;;;;;;1.71;100.00;103339.88;5005430;28;20042;-67
2024/01/27 00:33:36;;;;;;;17.42;4.70;;;;;;;1.66;100.00;103344.84;5107041;27;20840;-67
2024/01/27 00:36:04;;;;;;;21.95;5.00;;;;;;;1.62;100.00;103345.53;5086366;28;20103;-66
2024/01/27 00:38:31;;;;;;;17.85;4.68;;;;;;;1.57;100.00;103347.03;5087686;28;20055;-67
2024/01/27 00:40:58;;;;;;;16.20;4.57;;;;;;;1.54;100.00;103344.28;5079195;28;20049;-67
2024/01/27 00:43:25;;;;;;;16.08;5.30;;;;;;;1.49;100.00;103340.56;5084414;28;20090;-68
2024/01/27 00:45:52;;;;;;;17.55;5.05;;;;;;;1.47;100.00;103339.59;5084972;28;20120;-67
2024/01/27 00:48:20;;;;;;;13.02;4.68;;;;;;;1.45;100.00;103341.22;5066496;28;20055;-68
2024/01/27 00:50:47;;;;;;;20.45;5.20;;;;;;;1.41;100.00;103347.13;5086295;28;20048;-68
2024/01/27 00:53:14;;;;;;;18.27;5.35;;;;;;;1.36;100.00;103342.59;5082942;28;20040;-67
2024/01/27 00:55:42;;;;;;;17.02;5.07;;;;;;;1.35;100.00;103347.72;5084125;28;20036;-67
2024/01/27 00:58:09;;;;;;;16.35;5.45;;;;;;;1.32;100.00;103353.66;5083708;28;20106;-67
2024/01/27 01:00:36;;;;;;;10.00;4.60;;;;;;;1.32;100.00;103360.56;5088244;28;21653;-67
2024/01/27 01:03:03;;;;;;;22.95;6.65;;;;;;;1.28;100.00;103356.94;5083673;28;20041;-68
2024/01/27 01:05:30;;;;;;;14.30;5.82;;;;;;;1.28;100.00;103359.53;5101267;28;20050;-68
2024/01/27 01:07:58;;;;;;;17.17;5.55;;;;;;;1.24;100.00;103348.09;5084594;28;20059;-67
2024/01/27 01:10:26;;;;;;;19.20;5.43;;;;;;;1.19;100.00;103354.75;5090520;28;20618;-67
2024/01/27 01:12:53;;;;;;;15.48;4.95;;;;;;;1.16;100.00;103348.53;5083865;28;20052;-67
2024/01/27 01:15:20;;;;;;;16.40;4.85;;;;;;;1.12;100.00;103349.22;5083774;28;20127;-68
2024/01/27 01:17:48;;;;;;;17.73;5.97;;;;;;;1.10;100.00;103346.50;5085496;28;20048;-66
2024/01/27 01:20:15;;;;;;;21.05;5.38;;;;;;;1.07;100.00;103341.16;5086966;28;20051;-66
2024/01/27 01:22:42;;;;;;;17.27;5.70;;;;;;;1.07;100.00;103343.75;5069854;28;20130;-66
2024/01/27 01:25:10;;;;;;;18.63;6.00;;;;;;;1.10;100.00;103337.84;5099331;28;20154;-66
2024/01/27 01:27:37;;;;;;;20.90;6.80;;;;;;;1.13;100.00;103348.38;5088947;28;20043;-67
2024/01/27 01:30:05;;;;;;;21.27;5.97;;;;;;;1.13;100.00;103350.97;5070100;28;20136;-66
2024/01/27 01:32:33;;;;;;;22.92;6.10;;;;;;;1.11;100.00;103352.63;5068883;28;20050;-67
2024/01/27 01:35:00;;;;;;;13.27;5.72;;;;;;;1.06;100.00;103345.47;5092292;28;20114;-68
2024/01/27 01:37:27;;;;;;;14.88;5.63;;;;;;;1.04;100.00;103347.09;5076139;28;20592;-67
2024/01/27 01:39:54;;;;;;;15.90;5.85;;;;;;;1.03;100.00;103352.22;5083730;28;20141;-67
2024/01/27 01:42:24;;;;;;;17.98;6.13;;;;;;;1.00;100.00;103354.66;5077047;28;20069;-66
2024/01/27 01:44:52;;;;;;;23.35;5.93;;;;;;;0.95;100.00;103350.97;5070593;28;20048;-66
2024/01/27 01:47:19;;;;;;;16.92;6.03;;;;;;;0.92;100.00;103339.59;5069579;28;20064;-67
2024/01/27 01:49:46;;;;;;;18.38;7.00;;;;;;;0.92;100.00;103359.47;5071437;28;20524;-67
2024/01/27 01:52:19;;;;;;;15.55;6.07;;;;;;;0.92;100.00;103362.97;5057549;28;20040;-65
2024/01/27 01:54:50;;;;;;;18.58;6.63;;;;;;;0.92;100.00;103357.78;5070696;28;20139;-67
2024/01/27 01:57:18;;;;;;;20.92;6.60;;;;;;;0.90;100.00;103349.00;5050452;28;20048;-66
2024/01/27 01:59:45;;;;;;;16.85;7.15;;;;;;;0.93;100.00;103362.16;5064980;28;20518;-66
2024/01/27 02:02:13;;;;;;;15.57;6.55;;;;;;;0.93;100.00;103369.06;5067081;28;20064;-67
2024/01/27 02:04:47;;;;;;;20.05;7.00;;;;;;;0.90;100.00;103362.00;5068560;28;20151;-67
2024/01/27 02:07:15;;;;;;;19.58;6.53;;;;;;;0.88;100.00;103365.34;5067361;28;20067;-67
2024/01/27 02:09:42;;;;;;;19.08;6.53;;;;;;;0.84;100.00;103368.59;5062948;28;20043;-67
2024/01/27 02:12:09;;;;;;;23.50;6.45;;;;;;;0.79;100.00;103350.19;5069327;28;20064;-67
2024/01/27 02:14:36;;;;;;;13.95;6.05;;;;;;;0.73;100.00;103349.88;5070043;28;20044;-67
2024/01/27 02:17:04;;;;;;;19.65;6.20;;;;;;;0.67;100.00;103360.84;5076510;28;20382;-67
2024/01/27 02:19:31;;;;;;;17.70;6.82;;;;;;;0.60;100.00;103351.84;5052099;28;20044;-67
2024/01/27 02:21:59;;;;;;;15.95;6.22;;;;;;;0.55;100.00;103353.34;5070788;28;20047;-68
2024/01/27 02:24:28;;;;;;;15.63;5.70;;;;;;;0.48;100.00;103346.00;5068522;28;20047;-67
2024/01/27 02:26:55;;;;;;;17.30;6.07;;;;;;;0.43;100.00;103342.31;5069867;28;20072;-67
2024/01/27 02:29:23;;;;;;;21.10;6.10;;;;;;;0.37;100.00;103355.84;5070243;28;20059;-67
2024/01/27 02:31:50;;;;;;;22.30;6.32;;;;;;;0.29;100.00;103354.56;5070283;28;20057;-66
2024/01/27 02:34:17;;;;;;;14.77;6.05;;;;;;;0.23;100.00;103357.72;5072066;28;20131;-66
2024/01/27 02:36:44;;;;;;;20.73;6.20;;;;;;;0.19;100.00;103358.38;5055232;28;20104;-67
2024/01/27 02:39:11;;;;;;;18.55;6.60;;;;;;;0.15;100.00;103370.28;5068653;28;20043;-66
2024/01/27 02:41:39;;;;;;;16.55;6.20;;;;;;;0.12;100.00;103370.09;5060242;28;20048;-66
2024/01/27 02:44:06;;;;;;;21.45;6.82;;;;;;;0.09;100.00;103364.78;5084873;28;20132;-66
2024/01/27 02:46:33;;;;;;;19.10;6.85;;;;;;;0.09;100.00;103379.44;5058570;28;20044;-66
2024/01/27 02:49:00;;;;;;;22.58;7.20;;;;;;;0.05;100.00;103369.72;5081990;28;20428;-67
2024/01/27 02:51:27;;;;;;;20.98;6.72;;;;;;;0.07;100.00;103368.06;5069834;28;20056;-67
2024/01/27 02:53:54;;;;;;;20.08;6.53;;;;;;;0.07;100.00;103381.03;5079236;28;20040;-66
2024/01/27 02:56:22;;;;;;;19.23;6.88;;;;;;;0.03;100.00;103376.53;5061277;28;20036;-66
2024/01/27 02:58:49;;;;;;;15.60;7.40;;;;;;;0.02;100.00;103362.66;5067975;28;20067;-66
2024/01/27 03:01:16;;;;;;;20.27;7.47;;;;;;;0.03;100.00;103374.81;5061217;28;20042;-66
2024/01/27 03:03:43;;;;;;;19.77;7.78;;;;;;;0.01;100.00;103367.75;5068446;28;20551;-66
2024/01/27 03:06:10;;;;;;;17.55;6.90;;;;;;;-0.02;100.00;103366.78;5069248;28;20066;-66
2024/01/27 03:08:37;;;;;;;22.40;7.43;;;;;;;-0.04;100.00;103362.31;5068204;28;20125;-66
2024/01/27 03:11:04;;;;;;;19.23;8.10;;;;;;;-0.05;100.00;103360.53;5077326;28;20101;-66
2024/01/27 03:13:31;;;;;;;28.85;9.48;;;;;;;-0.08;100.00;103361.28;5047788;28;20045;-66
2024/01/27 03:15:59;;;;;;;22.90;9.43;;;;;;;-0.06;100.00;103351.88;5066127;28;20465;-66
2024/01/27 03:18:26;;;;;;;21.50;8.93;;;;;;;-0.01;100.00;103358.19;5068747;28;20051;-66
2024/01/27 03:20:53;;;;;;;26.27;9.63;;;;;;;0.03;100.00;103359.25;5081741;28;20061;-66
2024/01/27 03:23:20;;;;;;;28.67;8.88;;;;;;;0.05;100.00;103354.16;5068315;28;20123;-67
2024/01/27 03:25:47;;;;;;;24.85;9.52;;;;;;;0.09;100.00;103351.81;5067534;28;20638;-66
2024/01/27 03:28:16;;;;;;;32.45;11.27;;;;;;;0.11;100.00;103352.75;5069179;28;20075;-67
2024/01/27 03:30:43;;;;;;;24.63;10.07;;;;;;;0.12;100.00;103351.94;5066638;28;20067;-67
2024/01/27 03:33:12;;;;;;;30.70;10.63;;;;;;;0.16;100.00;103358.19;5067255;28;20106;-66
2024/01/27 03:35:39;;;;;;;26.23;10.48;;;;;;;0.18;100.00;103377.34;5040592;28;20066;-66
2024/01/27 03:38:07;;;;;;;25.38;8.30;;;;;;;0.14;100.00;103370.22;5062334;28;20052;-66
2024/01/27 03:40:34;;;;;;;20.15;7.90;;;;;;;0.11;100.00;103372.63;5070950;28;20655;-67
2024/01/27 03:43:01;;;;;;;17.83;8.02;;;;;;;0.03;100.00;103381.72;5068409;28;20110;-67
2024/01/27 03:45:28;;;;;;;18.55;8.57;;;;;;;-0.06;100.00;103382.09;5068565;28;20048;-66
2024/01/27 03:47:56;;;;;;;23.05;7.65;;;;;;;-0.13;100.00;103388.63;5068491;28;20504;-67
2024/01/27 03:50:23;;;;;;;20.60;7.53;;;;;;;-0.22;100.00;103381.28;5066024;28;20102;-66
2024/01/27 03:52:50;;;;;;;17.38;7.53;;;;;;;-0.28;100.00;103385.22;5072791;28;20040;-67
2024/01/27 03:55:18;;;;;;;20.02;7.32;;;;;;;-0.36;100.00;103383.09;5064980;28;20040;-66
2024/01/27 03:57:45;;;;;;;18.70;7.63;;;;;;;-0.41;100.00;103381.06;5058692;28;20089;-69
2024/01/27 04:00:12;;;;;;;17.00;7.93;;;;;;;-0.48;100.00;103385.88;5068820;28;20079;-67
2024/01/27 04:02:40;;;;;;;25.10;7.93;;;;;;;-0.51;100.00;103387.41;5066701;28;20037;-66
2024/01/27 04:05:07;;;;;;;16.63;8.35;;;;;;;-0.55;100.00;103394.13;5084252;28;20129;-66
2024/01/27 04:07:34;;;;;;;22.90;9.25;;;;;;;-0.60;100.00;103397.25;5066646;28;20071;-67
2024/01/27 04:10:04;;;;;;;19.50;9.32;;;;;;;-0.64;100.00;103401.38;5065824;28;20048;-67
2024/01/27 04:12:31;;;;;;;24.92;10.95;;;;;;;-0.68;100.00;103391.63;5071998;28;20047;-66
2024/01/27 04:14:59;;;;;;;28.90;11.80;;;;;;;-0.70;100.00;103401.00;5068560;28;20123;-67
2024/01/27 04:17:26;;;;;;;32.20;14.07;;;;;;;-0.73;100.00;103404.31;5067372;28;20119;-66
2024/01/27 04:19:54;;;;;;;26.73;12.98;;;;;;;-0.75;100.00;103395.56;5073689;28;20044;-66
2024/01/27 04:22:21;;;;;;;26.63;11.80;;;;;;;-0.74;100.00;103404.25;5066766;28;20040;-66
2024/01/27 04:24:48;;;;;;;23.77;10.82;;;;;;;-0.76;100.00;103401.53;5052071;28;20058;-67
2024/01/27 04:27:16;;;;;;;28.45;9.48;;;;;;;-0.80;100.00;103400.47;5063838;28;20097;-66
2024/01/27 04:29:43;;;;;;;25.70;9.57;;;;;;;-0.80;100.00;103405.66;5075148;28;20055;-67
2024/01/27 04:32:10;;;;;;;16.88;9.02;;;;;;;-0.81;100.00;103413.34;5043290;28;20045;-67
2024/01/27 04:34:37;;;;;;;25.08;11.55;;;;;;;-0.85;100.00;103403.59;5035375;28;20485;-66
2024/01/27 04:37:05;;;;;;;28.63;10.95;;;;;;;-0.88;100.00;103400.84;5026666;28;20669;-65
2024/01/27 04:39:32;;;;;;;23.95;10.07;;;;;;;-0.88;100.00;103406.91;5038028;28;20126;-65
2024/01/27 04:41:59;;;;;;;21.95;10.07;;;;;;;-0.88;100.00;103406.03;5038219;28;20049;-65
2024/01/27 04:44:26;;;;;;;25.63;11.55;;;;;;;-0.92;100.00;103399.78;5027442;28;20085;-65
2024/01/27 04:46:53;;;;;;;20.67;9.77;;;;;;;-0.95;100.00;103405.66;5027856;28;20151;-65
2024/01/27 04:49:21;;;;;;;25.98;10.38;;;;;;;-0.96;100.00;103405.59;5028479;28;20056;-66
2024/01/27 04:51:49;;;;;;;21.10;9.95;;;;;;;-0.95;100.00;103404.78;5024178;28;20124;-66
2024/01/27 04:54:16;;;;;;;26.52;9.77;;;;;;;-0.95;100.00;103410.84;5042787;28;20044;-65
2024/01/27 04:56:44;;;;;;;20.85;10.15;;;;;;;-0.96;100.00;103396.09;5028360;28;20045;-67
2024/01/27 04:59:11;;;;;;;26.00;11.05;;;;;;;-0.94;100.00;103402.28;5028344;28;20084;-67
2024/01/27 05:01:38;;;;;;;26.73;10.50;;;;;;;-0.89;100.00;103401.66;5036820;28;20090;-66
2024/01/27 05:04:05;;;;;;;25.90;10.10;;;;;;;-0.89;100.00;103394.75;5027771;28;20117;-67
2024/01/27 05:06:32;;;;;;;21.63;10.60;;;;;;;-0.88;100.00;103393.97;5027155;28;20041;-67
2024/01/27 05:09:00;;;;;;;23.40;10.52;;;;;;;-0.88;100.00;103398.28;5031184;28;20045;-67
2024/01/27 05:11:32;;;;;;;29.17;11.90;;;;;;;-0.88;100.00;103393.97;5041437;28;20044;-67
2024/01/27 05:14:00;;;;;;;22.67;10.33;;;;;;;-0.87;100.00;103389.69;5027453;28;20068;-68
2024/01/27 05:16:28;;;;;;;21.77;11.13;;;;;;;-0.85;100.00;103399.34;5028499;28;20038;-69
2024/01/27 05:18:55;;;;;;;29.55;10.68;;;;;;;-0.83;100.00;103383.88;5029106;28;20123;-68
2024/01/27 05:21:23;;;;;;;25.88;11.23;;;;;;;-0.79;100.00;103394.50;5036370;28;20056;-69
2024/01/27 05:23:50;;;;;;;25.33;10.98;;;;;;;-0.76;100.00;103387.72;5041967;28;20039;-68
2024/01/27 05:26:17;;;;;;;30.25;12.23;;;;;;;-0.74;100.00;103378.34;5031838;28;20049;-67
2024/01/27 05:28:44;;;;;;;21.40;10.82;;;;;;;-0.73;100.00;103383.59;5029749;28;20409;-68
2024/01/27 05:31:11;;;;;;;25.02;11.40;;;;;;;-0.74;100.00;103373.16;5034678;28;20041;-68
2024/01/27 05:33:42;;;;;;;25.08;11.48;;;;;;;-0.75;100.00;103367.06;5069283;28;20106;-68
2024/01/27 05:36:09;;;;;;;26.58;11.90;;;;;;;-0.74;100.00;103374.03;5069804;28;20048;-68
2024/01/27 05:38:37;;;;;;;23.42;11.40;;;;;;;-0.73;100.00;103381.00;5071864;28;20044;-68
2024/01/27 05:41:04;;;;;;;25.85;13.50;;;;;;;-0.73;100.00;103369.75;5069669;28;20131;-68
2024/01/27 05:43:31;;;;;;;24.15;11.43;;;;;;;-0.72;100.00;103387.97;5051652;28;20166;-68
2024/01/27 05:45:59;;;;;;;24.83;11.77;;;;;;;-0.74;100.00;103374.03;5069076;28;20875;-68
2024/01/27 05:48:26;;;;;;;27.20;11.98;;;;;;;-0.74;100.00;103380.94;5070677;28;20408;-68
2024/01/27 05:51:01;;;;;;;23.25;11.07;;;;;;;-0.75;100.00;103381.72;5070774;28;20044;-66
2024/01/27 05:53:28;;;;;;;25.92;10.80;;;;;;;-0.80;100.00;103376.28;5055086;28;20048;-68
2024/01/27 05:55:56;;;;;;;24.23;11.57;;;;;;;-0.82;100.00;103389.16;5070428;28;20082;-67
2024/01/27 05:58:24;;;;;;;26.92;12.27;;;;;;;-0.85;100.00;103386.38;5069621;28;20048;-68
2024/01/27 06:00:51;;;;;;;18.92;10.02;;;;;;;-0.88;100.00;103387.91;5069732;28;20472;-67
2024/01/27 06:03:18;;;;;;;19.67;10.65;;;;;;;-0.92;100.00;103383.34;5071177;28;20048;-67
2024/01/27 06:05:45;;;;;;;27.70;11.18;;;;;;;-0.95;100.00;103381.47;5069110;28;20036;-67
2024/01/27 06:08:13;;;;;;;27.92;10.48;;;;;;;-0.98;100.00;103389.97;5075843;28;20657;-68
2024/01/27 06:10:40;;;;;;;26.23;11.10;;;;;;;-1.01;100.00;103389.78;5081757;28;21173;-68
2024/01/27 06:13:07;;;;;;;22.67;10.35;;;;;;;-1.02;100.00;103390.56;5069804;28;20041;-68
2024/01/27 06:15:34;;;;;;;24.50;11.45;;;;;;;-1.02;100.00;103392.28;5072887;28;20044;-68
2024/01/27 06:18:02;;;;;;;24.45;10.50;;;;;;;-1.03;100.00;103388.78;5069950;28;20389;-68
2024/01/27 06:20:29;;;;;;;21.38;10.07;;;;;;;-1.03;100.00;103388.78;5071340;28;20064;-68
2024/01/27 06:22:57;;;;;;;28.38;11.73;;;;;;;-1.01;100.00;103387.19;5078811;28;20129;-66
2024/01/27 06:25:24;;;;;;;22.10;10.95;;;;;;;-1.00;100.00;103394.16;5068326;28;20048;-66
2024/01/27 06:27:51;;;;;;;25.58;11.18;;;;;;;-0.99;100.00;103392.44;5068274;28;20098;-67
2024/01/27 06:30:19;;;;;;;24.02;10.70;;;;;;;-0.96;100.00;103400.41;5068618;28;20075;-67
2024/01/27 06:32:47;;;;;;;26.70;11.45;;;;;;;-0.94;100.00;103397.09;5062935;28;20561;-67
2024/01/27 06:35:14;;;;;;;22.52;11.15;;;;;;;-0.94;100.00;103397.09;5042671;28;20045;-67
2024/01/27 06:37:42;;;;;;;25.63;11.43;;;;;;;-0.93;100.00;103395.41;5043901;28;20053;-65
2024/01/27 06:40:09;;;;;;;21.95;11.73;;;;;;;-0.92;100.00;103401.47;5049587;28;20493;-65
2024/01/27 06:42:37;;;;;;;28.02;12.25;;;;;;;-0.92;100.00;103399.78;5048784;28;20045;-65
2024/01/27 06:45:04;;;;;;;27.48;12.88;;;;;;;-0.91;100.00;103403.25;5045425;28;20437;-65
2024/01/27 06:47:32;;;;;;;22.83;11.70;;;;;;;-0.90;100.00;103403.34;5049943;28;20048;-67
2024/01/27 06:49:59;;;;;;;30.23;12.82;;;;;;;-0.91;100.00;103396.38;5050307;28;20045;-68
2024/01/27 06:52:29;;;;;;;22.77;11.98;;;;;;;-0.90;100.00;103400.75;5047483;28;20052;-66
2024/01/27 06:54:56;;;;;;;33.08;12.52;;;;;;;-0.89;100.00;103399.06;5047924;28;20543;-67
2024/01/27 06:57:24;;;;;;;30.77;11.95;;;;;;;-0.91;100.00;103400.66;5063005;28;20134;-67
2024/01/27 06:59:52;;;;;;;25.70;12.10;;;;;;;-0.91;100.00;103398.09;5046900;28;20056;-66
2024/01/27 07:02:23;;;;;;;32.40;13.50;;;;;;;-0.94;100.00;103402.28;5050683;28;20545;-68
2024/01/27 07:04:51;;;;;;;25.13;12.18;;;;;;;-0.96;100.00;103400.41;5063525;28;20037;-67
2024/01/27 07:07:25;;;;;;;25.13;12.52;;;;;;;-0.97;100.00;103398.63;5048439;28;20569;-67
2024/01/27 07:09:55;;;;;;;27.50;13.35;;;;;;;-1.00;100.00;103411.38;5049084;28;20041;-67
2024/01/27 07:12:22;;;;;;;27.80;13.65;;;;;;;-1.01;100.00;103412.16;5046760;28;20052;-67
2024/01/27 07:14:51;;;;;;;27.25;12.77;;;;;;;-1.02;100.00;103419.06;5049200;28;20694;-66
2024/01/27 07:17:22;;;;;;;22.70;12.32;;;;;;;-1.06;100.00;103417.09;5048808;28;20041;-68
2024/01/27 07:19:49;;;;;;;25.23;13.02;;;;;;;-1.03;100.00;103431.94;5051239;28;20128;-68
2024/01/27 07:22:16;;;;;;;27.48;13.45;;;;;;;-1.03;100.00;103443.16;5046740;28;20037;-66
2024/01/27 07:24:43;;;;;;;23.35;12.48;;;;;;;-1.02;100.00;103436.31;5048224;28;20090;-68
2024/01/27 07:27:13;;;;;;;27.08;13.80;;;;;;;-1.00;100.00;103435.59;5050032;28;20044;-68
2024/01/27 07:29:41;;;;;;;28.20;13.30;;;;;;;-0.97;100.00;103440.06;5046575;28;20527;-68
2024/01/27 07:32:13;;;;;;;26.10;13.77;;;;;;;-0.94;100.00;103440.25;5048503;28;20059;-69
2024/01/27 07:34:42;;;;;;;25.30;13.13;;;;;;;-0.90;100.00;103439.59;5067556;28;20703;-68
2024/01/27 07:37:10;;;;;;;29.25;13.60;;;;;;;-0.86;100.00;103444.16;5067969;28;20056;-66
2024/01/27 07:39:37;;;;;;;29.20;13.70;;;;;;;-0.84;100.00;103449.44;5053271;28;20131;-67
2024/01/27 07:42:05;;;;;;;29.48;14.30;;;;;;;-0.79;100.00;103450.59;5048755;28;20047;-66
2024/01/27 07:44:32;;;;;;;23.50;13.77;;;;;;;-0.76;100.00;103449.88;5067888;28;20522;-66
2024/01/27 07:46:59;;;;;;;29.45;14.85;;;;;;;-0.73;100.00;103455.25;5064796;28;20075;-66
2024/01/27 07:49:26;;;;;;;31.08;14.52;;;;;;;-0.70;100.00;103458.00;5071914;28;20047;-67
2024/01/27 07:51:55;;;;;;;26.17;13.77;;;;;;;-0.66;100.00;103455.69;5066706;28;20546;-68
2024/01/27 07:54:22;;;;;;;24.75;14.00;;;;;;;-0.63;100.00;103452.41;5067876;28;20124;-66
2024/01/27 07:56:50;;;;;;;29.73;14.35;;;;;;;-0.57;100.00;103457.94;5066051;28;20071;-66
2024/01/27 07:59:18;;;;;;;27.38;14.02;;;;;;;-0.50;100.00;103473.00;5068693;28;20040;-66
2024/01/27 08:01:45;;;;;;;31.00;13.35;;;;;;;-0.43;100.00;103469.06;5068276;28;20097;-67
2024/01/27 08:04:13;;;;;;;29.08;14.45;;;;;;;-0.36;100.00;103471.25;5066681;28;20060;-66
2024/01/27 08:06:49;;;;;;;26.90;14.00;;;;;;;-0.28;100.00;103471.66;5070782;28;20098;-68
2024/01/27 08:09:17;;;;;;;29.38;13.52;;;;;;;-0.24;100.00;103472.72;5065237;28;20510;-66
2024/01/27 08:11:45;;;;;;;28.75;14.10;;;;;;;-0.19;100.00;103468.69;5067415;28;20074;-66
2024/01/27 08:14:12;;;;;;;24.63;14.13;;;;;;;-0.14;100.00;103471.56;5046149;28;20563;-66
2024/01/27 08:16:40;;;;;;;29.80;14.30;;;;;;;-0.09;100.00;103462.31;5068189;28;20119;-67
2024/01/27 08:19:07;;;;;;;30.55;14.32;;;;;;;-0.01;100.00;103468.84;5067411;28;20068;-66
2024/01/27 08:21:34;;;;;;;25.50;14.90;;;;;;;0.06;100.00;103470.97;5068147;28;20052;-68
2024/01/27 08:24:01;;;;;;;27.50;14.88;;;;;;;0.13;100.00;103469.59;5066842;28;20044;-68
2024/01/27 08:26:28;;;;;;;35.55;13.60;;;;;;;0.19;100.00;103472.53;5051474;28;20045;-68
2024/01/27 08:28:56;;;;;;;29.77;14.52;;;;;;;0.26;100.00;103471.16;5065806;28;20044;-68
2024/01/27 08:31:23;;;;;;;26.05;13.82;;;;;;;0.34;100.00;103467.28;5067111;28;20040;-67
2024/01/27 08:33:50;;;;;;;35.30;14.63;;;;;;;0.43;100.00;103459.09;5071988;28;20076;-66
2024/01/27 08:36:17;;;;;;;29.00;14.52;;;;;;;0.53;100.00;103455.28;5068878;28;20094;-67
2024/01/27 08:38:45;;;;;;;29.80;13.95;;;;;;;0.63;100.00;103460.16;5066701;28;20040;-68
2024/01/27 08:41:14;;;;;;;31.42;13.27;;;;;;;0.77;100.00;103463.47;5066084;28;20048;-67
2024/01/27 08:43:44;;;;;;;26.20;12.77;;;;;;;0.91;100.00;103459.03;5062087;28;20036;-68
2024/01/27 08:46:13;;;;;;;28.65;13.65;;;;;;;1.07;100.00;103459.00;5064870;28;20066;-68
2024/01/27 08:48:41;;;;;;;30.25;13.13;;;;;;;1.20;100.00;103459.63;5067113;28;20036;-68
2024/01/27 08:51:10;;;;;;;25.40;12.93;;;;;;;1.39;100.00;103466.63;5066137;28;20036;-69
2024/01/27 08:53:37;;;;;;;27.75;13.27;;;;;;;1.52;100.00;103466.41;5070979;28;20094;-70
2024/01/27 08:56:05;;;;;;;26.45;12.10;;;;;;;1.60;100.00;103451.19;5071743;28;20044;-69
2024/01/27 08:58:32;;;;;;;25.80;12.75;;;;;;;1.67;100.00;103449.78;5065412;28;20052;-69
2024/01/27 09:01:05;;;;;;;24.45;12.25;;;;;;;1.76;100.00;103444.13;5069821;28;20051;-70
2024/01/27 09:03:32;;;;;;;22.33;12.82;;;;;;;1.90;100.00;103461.28;5073313;28;20064;-69
2024/01/27 09:06:02;;;;;;;21.52;11.07;;;;;;;2.05;100.00;103457.63;5071373;28;20063;-68
2024/01/27 09:08:31;;;;;;;29.33;12.88;;;;;;;2.16;100.00;103459.94;5054680;28;20561;-69
2024/01/27 09:10:58;;;;;;;22.90;11.13;;;;;;;2.35;100.00;103462.47;5076536;28;20052;-68
2024/01/27 09:13:25;;;;;;;23.25;10.75;;;;;;;2.47;100.00;103466.53;5073279;28;20040;-69
2024/01/27 09:15:52;;;;;;;26.27;11.57;;;;;;;2.55;100.00;103469.47;5084435;28;20050;-68
2024/01/27 09:18:19;;;;;;;19.73;10.90;;;;;;;2.58;100.00;103460.94;5056738;28;20064;-69
2024/01/27 09:20:49;;;;;;;19.48;10.60;;;;;;;2.56;100.00;103468.66;5066702;28;20099;-69
2024/01/27 09:23:16;;;;;;;24.48;10.75;;;;;;;2.63;100.00;103467.22;5048226;28;20128;-69
2024/01/27 09:25:44;;;;;;;23.90;11.40;;;;;;;2.65;100.00;103468.19;5072094;28;20497;-69
2024/01/27 09:28:12;;;;;;;21.63;10.57;;;;;;;2.73;100.00;103473.75;5079625;28;20040;-67
2024/01/27 09:30:39;;;;;;;23.05;9.73;;;;;;;2.77;100.00;103471.34;5076337;28;20044;-67
2024/01/27 09:33:06;;;;;;;22.67;9.52;;;;;;;2.80;100.00;103478.41;5060057;28;20376;-67
2024/01/27 09:35:33;;;;;;;24.13;9.90;;;;;;;2.85;100.00;103479.47;5069816;28;20043;-67
2024/01/27 09:38:00;;;;;;;20.08;9.70;;;;;;;2.93;100.00;103482.44;5052508;28;20041;-67
2024/01/27 09:40:28;;;;;;;22.95;10.65;;;;;;;3.01;100.00;103494.06;5076100;28;20583;-67
2024/01/27 09:42:59;;;;;;;27.08;11.23;;;;;;;3.08;100.00;103490.94;5052693;28;20036;-67
2024/01/27 09:45:27;;;;;;;20.88;10.32;;;;;;;3.15;100.00;103491.19;5070601;28;20132;-67
2024/01/27 09:47:59;;;;;;;20.55;9.85;;;;;;;3.21;100.00;103497.56;5071819;28;20056;-67
2024/01/27 09:50:27;;;;;;;29.02;10.88;;;;;;;3.27;100.00;103502.16;5067026;28;20040;-67
2024/01/27 09:52:55;;;;;;;22.20;10.23;;;;;;;3.31;100.00;103501.44;5064297;28;20055;-67
2024/01/27 09:55:22;;;;;;;23.02;9.07;;;;;;;3.36;100.00;103505.16;5052725;28;20071;-67
2024/01/27 09:57:53;;;;;;;22.38;9.50;;;;;;;3.40;100.00;103509.69;5072740;28;20036;-66
2024/01/27 10:00:23;;;;;;;55.83;22.50;;;;;;;3.45;100.00;103504.66;5069527;28;20088;-66
2024/01/27 10:02:52;;;;;;;32.75;17.35;;;;;;;3.49;100.00;103508.28;5081220;28;20090;-67
2024/01/27 10:05:21;;;;;;;27.17;10.98;;;;;;;3.53;100.00;103515.38;5070890;28;20048;-67
2024/01/27 10:07:48;;;;;;;93.50;49.25;;;;;;;3.55;100.00;103514.66;5069837;28;20079;-67
2024/01/27 10:10:15;;;;;;;365.95;194.35;;;;;;;3.63;100.00;103514.06;5082514;28;20036;-67
2024/01/27 10:12:44;;;;;;;36.67;23.98;;;;;;;3.68;100.00;103516.03;5069461;28;20043;-67
2024/01/27 10:15:22;;;;;;;30.05;17.30;;;;;;;3.75;100.00;103514.56;5061930;28;20519;-67
2024/01/27 10:17:50;;;;;;;25.27;13.65;;;;;;;3.78;100.00;103522.50;5067397;28;20463;-67
2024/01/27 10:20:18;;;;;;;22.67;11.23;;;;;;;3.83;100.00;103523.59;5069124;28;20137;-67
2024/01/27 10:22:46;;;;;;;22.58;11.98;;;;;;;3.87;100.00;103530.72;5069478;28;21581;-69
2024/01/27 10:25:14;;;;;;;28.58;11.70;;;;;;;3.94;100.00;103529.25;5061493;28;20060;-67
2024/01/27 10:27:42;;;;;;;26.13;11.20;;;;;;;4.00;100.00;103528.59;5069154;28;20041;-67
2024/01/27 10:30:18;;;;;;;75.25;40.05;;;;;;;4.04;100.00;103523.56;5068211;28;20121;-67
2024/01/27 10:32:59;;;;;;;27.80;14.73;;;;;;;4.10;100.00;103522.03;5049613;28;20057;-67
2024/01/27 10:35:28;;;;;;;39.53;19.25;;;;;;;4.14;100.00;103519.63;5067645;28;20043;-68
2024/01/27 10:37:56;;;;;;;32.63;21.45;;;;;;;4.24;100.00;103525.19;5050938;28;20491;-67
2024/01/27 10:40:29;;;;;;;70.78;41.25;;;;;;;4.31;100.00;103514.13;5068384;28;20044;-67
2024/01/27 10:43:07;;;;;;;32.22;17.30;;;;;;;4.40;100.00;103514.50;5067240;28;20040;-67
2024/01/27 10:45:38;;;;;;;32.30;13.35;;;;;;;4.48;100.00;103509.56;5067099;28;20051;-67
2024/01/27 10:48:13;;;;;;;35.63;18.80;;;;;;;4.55;100.00;103514.19;5065449;28;20040;-67
2024/01/27 10:50:41;;;;;;;22.80;10.70;;;;;;;4.65;100.00;103523.28;5063979;28;20075;-67
2024/01/27 10:53:24;;;;;;;26.23;11.82;;;;;;;4.72;100.00;103527.00;5065960;28;20601;-67
2024/01/27 10:55:55;;;;;;;21.73;9.07;;;;;;;4.77;100.00;103523.75;5066948;28;20067;-67
2024/01/27 10:58:24;;;;;;;451.00;168.95;;;;;;;4.84;100.00;103509.13;5066424;28;20163;-67
2024/01/27 11:00:53;;;;;;;30.58;12.45;;;;;;;4.94;100.00;103513.00;5068138;28;20044;-67
2024/01/27 11:03:23;;;;;;;24.80;10.68;;;;;;;5.02;100.00;103508.03;5049117;28;20238;-67
2024/01/27 11:05:54;;;;;;;18.77;10.38;;;;;;;5.09;100.00;103516.13;5067678;28;20047;-67
2024/01/27 11:08:27;;;;;;;19.50;9.35;;;;;;;5.19;100.00;103512.13;5066138;28;20098;-67
2024/01/27 11:10:56;;;;;;;18.15;8.82;;;;;;;5.28;100.00;103501.13;5065915;28;20504;-67
2024/01/27 11:13:26;;;;;;;18.48;7.03;;;;;;;5.38;100.00;103503.22;5066794;28;20048;-67
2024/01/27 11:15:54;;;;;;;18.55;6.72;;;;;;;5.47;100.00;103491.28;5065052;28;20497;-67